createdAt,value
2023-03-20T00:00:10.550Z,99987.53
2023-03-20T00:02:21.898Z,99983.44
2023-03-20T00:04:26.233Z,99972.59
2023-03-20T00:06:32.569Z,99984.25
2023-03-20T00:08:35.119Z,99979.16
2023-03-20T00:10:41.755Z,99968.34
2023-03-20T00:12:45.829Z,99974.31
2023-03-20T00:14:48.404Z,99977.03
2023-03-20T00:16:51.730Z,99966.78
2023-03-20T00:18:56.520Z,99962.41
2023-03-20T00:20:59.030Z,99965.94
2023-03-20T00:23:01.587Z,99970.28
2023-03-20T00:25:04.309Z,99965.94
2023-03-20T00:27:06.914Z,99972.19
2023-03-20T00:29:23.242Z,99972.75
2023-03-20T00:31:28.032Z,99966.50
2023-03-20T00:33:31.508Z,99958.88
2023-03-20T00:35:34.208Z,99956.19
2023-03-20T00:37:36.931Z,99958.88
2023-03-20T00:39:40.163Z,99954.84
2023-03-20T00:41:44.290Z,99955.94
2023-03-20T00:43:49.923Z,99956.69
2023-03-20T00:45:52.622Z,99961.84
2023-03-20T00:47:57.570Z,99948.56
2023-03-20T00:50:00.486Z,99972.44
2023-03-20T00:52:03.910Z,99961.09
2023-03-20T00:54:13.322Z,99952.16
2023-03-20T00:56:27.652Z,99958.94
2023-03-20T00:58:30.454Z,99940.56
2023-03-20T01:00:44.286Z,99945.41
2023-03-20T01:02:46.806Z,99946.97
2023-03-20T01:04:49.604Z,99942.69
2023-03-20T01:06:52.843Z,99943.78
2023-03-20T01:08:57.837Z,99941.66
2023-03-20T01:11:00.376Z,99933.69
2023-03-20T01:13:03.131Z,99938.09
2023-03-20T01:15:17.263Z,99947.13
2023-03-20T01:17:22.784Z,99934.97
2023-03-20T01:19:25.492Z,99939.56
2023-03-20T01:21:27.972Z,99933.06
2023-03-20T01:23:30.451Z,99930.88
2023-03-20T01:25:32.979Z,99930.06
2023-03-20T01:27:35.553Z,99922.69
2023-03-20T01:29:38.114Z,99920.22
2023-03-20T01:31:42.153Z,99919.13
2023-03-20T01:33:45.788Z,99914.56
2023-03-20T01:35:50.076Z,99915.88
2023-03-20T01:37:52.840Z,99927.78
2023-03-20T01:39:57.451Z,99911.22
2023-03-20T01:42:01.458Z,99919.59
2023-03-20T01:44:23.963Z,99914.13
2023-03-20T01:46:28.797Z,99912.53
2023-03-20T01:48:57.103Z,99910.16
2023-03-20T01:50:59.691Z,99916.13
2023-03-20T01:53:20.996Z,99911.22
2023-03-20T01:55:24.146Z,99910.38
2023-03-20T01:57:26.731Z,99916.06
2023-03-20T01:59:50.553Z,99912.63
2023-03-20T02:01:53.260Z,99907.69
2023-03-20T02:03:56.782Z,99910.38
2023-03-20T02:06:00.124Z,99904.66
2023-03-20T02:08:14.772Z,99905.25
2023-03-20T02:10:19.635Z,99916.66
2023-03-20T02:12:22.694Z,99907.09
2023-03-20T02:14:26.987Z,99914.19
2023-03-20T02:16:29.763Z,99912.84
2023-03-20T02:18:33.159Z,99916.38
2023-03-20T02:21:16.788Z,99910.91
2023-03-20T02:23:47.870Z,99907.44
2023-03-20T02:25:51.453Z,99904.16
2023-03-20T02:28:03.026Z,99901.16
2023-03-20T02:30:37.420Z,99911.47
2023-03-20T02:33:31.581Z,99909.00
2023-03-20T02:35:52.755Z,99901.91
2023-03-20T02:38:32.741Z,99911.97
2023-03-20T02:40:44.185Z,99912.53
2023-03-20T02:42:58.769Z,99906.00
2023-03-20T02:45:08.895Z,99904.63
2023-03-20T02:47:18.941Z,99905.25
2023-03-20T02:49:35.520Z,99903.59
2023-03-20T02:52:00.503Z,99900.88
2023-03-20T02:54:17.827Z,99904.41
2023-03-20T02:56:23.420Z,99910.16
2023-03-20T02:58:42.257Z,99907.19
2023-03-20T03:01:09.466Z,99911.28
2023-03-20T03:03:14.004Z,99908.88
2023-03-20T03:05:25.826Z,99908.88
2023-03-20T03:07:32.971Z,99910.81
2023-03-20T03:09:52.732Z,99902.47
2023-03-20T03:12:04.886Z,99897.03
2023-03-20T03:14:07.843Z,99894.09
2023-03-20T03:16:16.766Z,99888.91
2023-03-20T03:18:22.713Z,99886.50
2023-03-20T03:20:30.990Z,99884.88
2023-03-20T03:22:34.911Z,99885.69
2023-03-20T03:24:43.136Z,99880.28
2023-03-20T03:26:46.452Z,99880.53
2023-03-20T03:28:54.530Z,99876.19
2023-03-20T03:30:59.219Z,99884.88
2023-03-20T03:33:19.655Z,99868.63
2023-03-20T03:35:23.677Z,99871.34
2023-03-20T03:37:54.575Z,99870.47
2023-03-20T03:40:05.713Z,99873.72
2023-03-20T03:42:38.058Z,99865.25
2023-03-20T03:45:02.622Z,99864.97
2023-03-20T03:47:19.740Z,99872.63
2023-03-20T03:49:46.386Z,99862.25
2023-03-20T03:51:55.172Z,99876.44
2023-03-20T03:54:05.881Z,99874.03
2023-03-20T03:56:12.536Z,99872.72
2023-03-20T03:58:26.507Z,99877.84
2023-03-20T04:00:29.605Z,99876.19
2023-03-20T04:02:33.300Z,99875.63
2023-03-20T04:04:42.728Z,99879.47
2023-03-20T04:06:45.658Z,99878.38
2023-03-20T04:08:48.190Z,99877.88
2023-03-20T04:10:51.318Z,99883.88
2023-03-20T04:12:53.810Z,99888.78
2023-03-20T04:14:56.315Z,99876.56
2023-03-20T04:16:58.816Z,99882.53
2023-03-20T04:19:01.296Z,99881.25
2023-03-20T04:21:03.970Z,99879.13
2023-03-20T04:23:06.571Z,99878.56
2023-03-20T04:25:10.675Z,99868.25
2023-03-20T04:27:13.236Z,99878.56
2023-03-20T04:29:16.138Z,99878.00
2023-03-20T04:31:18.702Z,99869.34
2023-03-20T04:33:21.853Z,99888.88
2023-03-20T04:35:24.744Z,99867.19
2023-03-20T04:37:27.273Z,99867.00
2023-03-20T04:39:29.805Z,99876.97
2023-03-20T04:41:32.291Z,99876.41
2023-03-20T04:43:35.017Z,99875.09
2023-03-20T04:45:39.467Z,99872.66
2023-03-20T04:47:42.119Z,99875.69
2023-03-20T04:49:44.621Z,99878.41
2023-03-20T04:51:47.132Z,99881.41
2023-03-20T04:53:49.825Z,99882.25
2023-03-20T04:55:52.286Z,99885.19
2023-03-20T04:57:54.812Z,99886.81
2023-03-20T04:59:57.296Z,99890.66
2023-03-20T05:01:59.830Z,99883.09
2023-03-20T05:04:02.768Z,99886.06
2023-03-20T05:06:05.827Z,99886.56
2023-03-20T05:08:08.512Z,99888.22
2023-03-20T05:10:11.608Z,99878.78
2023-03-20T05:12:15.307Z,99879.81
2023-03-20T05:14:18.128Z,99874.72
2023-03-20T05:16:21.122Z,99876.91
2023-03-20T05:18:23.733Z,99878.00
2023-03-20T05:20:26.751Z,99886.66
2023-03-20T05:22:29.226Z,99888.06
2023-03-20T05:24:32.352Z,99890.03
2023-03-20T05:26:34.834Z,99887.03
2023-03-20T05:28:37.816Z,99877.34
2023-03-20T05:30:40.673Z,99889.56
2023-03-20T05:32:43.994Z,99879.84
2023-03-20T05:34:46.639Z,99880.13
2023-03-20T05:36:49.136Z,99885.31
2023-03-20T05:38:51.815Z,99879.66
2023-03-20T05:40:58.649Z,99880.97
2023-03-20T05:43:01.244Z,99875.84
2023-03-20T05:45:04.681Z,99877.22
2023-03-20T05:47:07.263Z,99872.34
2023-03-20T05:49:09.855Z,99883.56
2023-03-20T05:51:12.332Z,99868.91
2023-03-20T05:53:15.047Z,99867.84
2023-03-20T05:55:17.720Z,99872.19
2023-03-20T05:57:20.908Z,99863.00
2023-03-20T05:59:23.498Z,99860.28
2023-03-20T06:01:26.218Z,99856.25
2023-03-20T06:03:28.731Z,99860.88
2023-03-20T06:05:31.290Z,99853.03
2023-03-20T06:07:33.757Z,99856.31
2023-03-20T06:09:36.609Z,99855.81
2023-03-20T06:11:39.131Z,99859.59
2023-03-20T06:13:41.642Z,99857.44
2023-03-20T06:15:44.230Z,99862.34
2023-03-20T06:17:46.695Z,99866.94
2023-03-20T06:19:49.261Z,99857.47
2023-03-20T06:21:51.809Z,99850.69
2023-03-20T06:23:54.962Z,99852.34
2023-03-20T06:25:57.426Z,99856.19
2023-03-20T06:28:00.794Z,99843.66
2023-03-20T06:30:03.836Z,99847.78
2023-03-20T06:32:09.471Z,99852.97
2023-03-20T06:34:11.981Z,99850.25
2023-03-20T06:36:14.563Z,99849.53
2023-03-20T06:38:17.085Z,99841.41
2023-03-20T06:40:19.645Z,99853.09
2023-03-20T06:42:22.410Z,99851.50
2023-03-20T06:44:25.436Z,99852.59
2023-03-20T06:46:28.089Z,99850.19
2023-03-20T06:48:30.781Z,99847.47
2023-03-20T06:50:33.323Z,99842.31
2023-03-20T06:52:35.887Z,99840.94
2023-03-20T06:54:38.366Z,99843.91
2023-03-20T06:56:40.898Z,99835.75
2023-03-20T06:58:43.445Z,99846.94
2023-03-20T07:00:46.745Z,99844.75
2023-03-20T07:02:50.925Z,99838.47
2023-03-20T07:04:54.429Z,99841.19
2023-03-20T07:06:57.010Z,99835.75
2023-03-20T07:08:59.591Z,99837.09
2023-03-20T07:11:02.506Z,99832.78
2023-03-20T07:13:05.095Z,99830.88
2023-03-20T07:15:07.890Z,99839.31
2023-03-20T07:17:10.762Z,99826.00
2023-03-20T07:19:13.706Z,99827.09
2023-03-20T07:21:20.520Z,99827.91
2023-03-20T07:23:23.049Z,99824.09
2023-03-20T07:25:39.334Z,99830.63
2023-03-20T07:27:50.405Z,99827.66
2023-03-20T07:29:52.930Z,99828.22
2023-03-20T07:31:55.674Z,99829.28
2023-03-20T07:33:59.033Z,99829.00
2023-03-20T07:36:01.808Z,99832.81
2023-03-20T07:38:04.367Z,99833.34
2023-03-20T07:40:07.411Z,99826.84
2023-03-20T07:42:10.047Z,99830.13
2023-03-20T07:44:14.530Z,99838.28
2023-03-20T07:46:17.256Z,99827.97
2023-03-20T07:48:19.970Z,99827.16
2023-03-20T07:50:22.435Z,99828.22
2023-03-20T07:52:25.006Z,99833.41
2023-03-20T07:54:27.582Z,99833.66
2023-03-20T07:56:30.133Z,99834.19
2023-03-20T07:58:32.873Z,99831.75
2023-03-20T08:00:35.540Z,99832.59
2023-03-20T08:02:38.176Z,99823.63
2023-03-20T08:04:41.298Z,99819.00
2023-03-20T08:06:43.888Z,99819.25
2023-03-20T08:08:46.891Z,99820.63
2023-03-20T08:10:49.431Z,99814.38
2023-03-20T08:12:52.307Z,99808.38
2023-03-20T08:14:54.820Z,99810.84
2023-03-20T08:17:12.852Z,99805.13
2023-03-20T08:19:17.200Z,99798.88
2023-03-20T08:21:19.944Z,99797.78
2023-03-20T08:23:22.457Z,99798.34
2023-03-20T08:25:25.005Z,99790.44
2023-03-20T08:27:27.504Z,99793.72
2023-03-20T08:29:30.053Z,99789.06
2023-03-20T08:31:32.762Z,99793.97
2023-03-20T08:33:36.607Z,99786.31
2023-03-20T08:35:39.332Z,99782.50
2023-03-20T08:37:41.948Z,99786.03
2023-03-20T08:39:44.597Z,99783.28
2023-03-20T08:41:47.143Z,99774.81
2023-03-20T08:43:49.691Z,99770.47
2023-03-20T08:45:52.852Z,99769.91
2023-03-20T08:47:55.409Z,99768.03
2023-03-20T08:49:58.014Z,99772.13
2023-03-20T08:52:00.944Z,99767.78
2023-03-20T08:54:03.509Z,99773.25
2023-03-20T08:56:06.608Z,99770.22
2023-03-20T08:58:09.074Z,99775.16
2023-03-20T09:00:14.540Z,99772.69
2023-03-20T09:02:17.316Z,99767.75
2023-03-20T09:04:19.977Z,99774.28
2023-03-20T09:06:22.479Z,99773.19
2023-03-20T09:08:25.140Z,99771.56
2023-03-20T09:10:27.688Z,99775.38
2023-03-20T09:12:32.152Z,99778.41
2023-03-20T09:14:34.738Z,99769.41
2023-03-20T09:16:37.886Z,99775.91
2023-03-20T09:18:40.421Z,99768.91
2023-03-20T09:20:43.225Z,99766.72
2023-03-20T09:22:45.847Z,99776.28
2023-03-20T09:24:48.348Z,99769.75
2023-03-20T09:26:51.459Z,99774.63
2023-03-20T09:28:54.004Z,99769.19
2023-03-20T09:31:00.453Z,99775.69
2023-03-20T09:33:02.995Z,99777.63
2023-03-20T09:35:06.859Z,99777.59
2023-03-20T09:37:09.648Z,99770.47
2023-03-20T09:39:12.367Z,99773.19
2023-03-20T09:41:24.184Z,99765.28
2023-03-20T09:44:00.670Z,99764.47
2023-03-20T09:46:34.211Z,99758.16
2023-03-20T09:49:15.445Z,99760.91
2023-03-20T09:51:20.847Z,99771.50
2023-03-20T09:53:38.174Z,99764.16
2023-03-20T09:55:43.119Z,99757.31
2023-03-20T09:57:57.563Z,99746.41
2023-03-20T10:00:08.119Z,99754.56
2023-03-20T10:02:20.173Z,99743.94
2023-03-20T10:04:24.190Z,99750.22
2023-03-20T10:06:27.074Z,99749.16
2023-03-20T10:08:38.377Z,99749.72
2023-03-20T10:10:49.613Z,99744.81
2023-03-20T10:13:01.010Z,99748.38
2023-03-20T10:15:21.844Z,99737.50
2023-03-20T10:17:30.632Z,99741.06
2023-03-20T10:19:43.036Z,99742.44
2023-03-20T10:21:49.542Z,99737.28
2023-03-20T10:24:02.606Z,99737.53
2023-03-20T10:26:18.417Z,99742.75
2023-03-20T10:28:47.963Z,99739.25
2023-03-20T10:31:23.102Z,99733.53
2023-03-20T10:33:49.563Z,99741.97
2023-03-20T10:36:13.506Z,99734.31
2023-03-20T10:38:25.140Z,99733.47
2023-03-20T10:40:33.125Z,99721.78
2023-03-20T10:42:41.381Z,99734.00
2023-03-20T10:44:50.539Z,99729.97
2023-03-20T10:46:56.708Z,99732.16
2023-03-20T10:49:08.885Z,99732.44
2023-03-20T10:51:21.943Z,99740.34
2023-03-20T10:53:49.140Z,99728.13
2023-03-20T10:55:54.916Z,99725.41
2023-03-20T10:58:24.816Z,99733.06
2023-03-20T11:00:27.478Z,99728.72
2023-03-20T11:02:32.211Z,99726.81
2023-03-20T11:04:34.891Z,99721.38
2023-03-20T11:07:03.673Z,99722.69
2023-03-20T11:09:18.801Z,99727.84
2023-03-20T11:11:26.133Z,99716.94
2023-03-20T11:13:34.910Z,99719.41
2023-03-20T11:15:37.885Z,99717.78
2023-03-20T11:17:40.416Z,99713.19
2023-03-20T11:19:43.128Z,99715.91
2023-03-20T11:21:52.361Z,99712.91
2023-03-20T11:23:55.932Z,99711.56
2023-03-20T11:26:01.121Z,99705.91
2023-03-20T11:28:36.437Z,99698.81
2023-03-20T11:30:48.516Z,99696.66
2023-03-20T11:33:05.662Z,99700.19
2023-03-20T11:35:26.077Z,99693.94
2023-03-20T11:37:33.827Z,99694.22
2023-03-20T11:39:38.201Z,99702.91
2023-03-20T11:41:50.814Z,99691.25
2023-03-20T11:43:53.944Z,99689.59
2023-03-20T11:45:59.543Z,99686.06
2023-03-20T11:48:03.926Z,99686.59
2023-03-20T11:50:14.290Z,99687.72
2023-03-20T11:52:22.177Z,99689.06
2023-03-20T11:54:27.118Z,99674.66
2023-03-20T11:56:34.421Z,99676.53
2023-03-20T11:58:47.396Z,99676.53
2023-03-20T12:00:51.785Z,99680.63
2023-03-20T12:02:54.565Z,99667.31
2023-03-20T12:05:00.973Z,99665.97
2023-03-20T12:07:25.086Z,99660.81
2023-03-20T12:10:06.709Z,99660.81
2023-03-20T12:12:38.288Z,99651.31
2023-03-20T12:15:13.529Z,99649.66
2023-03-20T12:17:32.623Z,99649.94
2023-03-20T12:19:36.456Z,99648.84
2023-03-20T12:21:52.570Z,99643.13
2023-03-20T12:24:04.855Z,99653.19
2023-03-20T12:26:14.139Z,99647.50
2023-03-20T12:28:44.846Z,99645.84
2023-03-20T12:31:29.279Z,99644.50
2023-03-20T12:33:53.431Z,99642.59
2023-03-20T12:35:58.911Z,99640.13
2023-03-20T12:38:01.696Z,99638.53
2023-03-20T12:40:04.621Z,99635.81
2023-03-20T12:42:22.492Z,99636.34
2023-03-20T12:44:36.964Z,99642.84
2023-03-20T12:47:07.374Z,99630.38
2023-03-20T12:49:36.233Z,99622.47
2023-03-20T12:51:38.692Z,99623.56
2023-03-20T12:54:23.923Z,99622.47
2023-03-20T12:56:45.153Z,99617.88
2023-03-20T12:58:56.290Z,99611.88
2023-03-20T13:01:20.876Z,99617.56
2023-03-20T13:04:04.654Z,99613.25
2023-03-20T13:06:17.974Z,99612.16
2023-03-20T13:08:44.424Z,99605.09
2023-03-20T13:11:01.860Z,99603.75
2023-03-20T13:13:05.974Z,99601.28
2023-03-20T13:15:30.471Z,99601.84
2023-03-20T13:17:53.339Z,99596.66
2023-03-20T13:20:27.858Z,99599.13
2023-03-20T13:22:54.974Z,99592.84
2023-03-20T13:25:46.850Z,99594.75
2023-03-20T13:27:59.524Z,99590.69
2023-03-20T13:30:13.893Z,99588.78
2023-03-20T13:32:22.127Z,99590.69
2023-03-20T13:34:57.583Z,99596.63
2023-03-20T13:37:23.104Z,99591.47
2023-03-20T13:39:48.454Z,99582.53
2023-03-20T13:41:52.484Z,99585.25
2023-03-20T13:44:01.332Z,99585.81
2023-03-20T13:46:11.297Z,99578.72
2023-03-20T13:48:43.098Z,99573.84
2023-03-20T13:51:08.959Z,99577.13
2023-03-20T13:53:22.593Z,99568.16
2023-03-20T13:55:32.694Z,99569.22
2023-03-20T13:57:53.498Z,99565.72
2023-03-20T14:00:19.772Z,99573.06
2023-03-20T14:02:22.368Z,99570.88
2023-03-20T14:04:27.339Z,99577.38
2023-03-20T14:06:33.111Z,99582.00
2023-03-20T14:08:38.639Z,99581.44
2023-03-20T14:10:41.290Z,99583.88
2023-03-20T14:12:43.927Z,99588.22
2023-03-20T14:14:55.427Z,99586.88
2023-03-20T14:17:14.427Z,99577.63
2023-03-20T14:19:20.972Z,99582.50
2023-03-20T14:21:24.573Z,99578.97
2023-03-20T14:23:50.858Z,99582.00
2023-03-20T14:25:55.411Z,99580.88
2023-03-20T14:28:00.188Z,99583.06
2023-03-20T14:30:30.427Z,99566.75
2023-03-20T14:32:36.021Z,99577.63
2023-03-20T14:34:48.794Z,99573.84
2023-03-20T14:37:00.124Z,99574.09
2023-03-20T14:39:07.415Z,99579.53
2023-03-20T14:41:17.007Z,99572.44
2023-03-20T14:43:59.867Z,99568.13
2023-03-20T14:46:31.175Z,99578.97
2023-03-20T14:48:44.735Z,99566.22
2023-03-20T14:50:47.132Z,99565.13
2023-03-20T14:52:52.350Z,99566.47
2023-03-20T14:54:56.076Z,99561.03
2023-03-20T14:57:16.339Z,99576.81
2023-03-20T14:59:23.732Z,99565.13
2023-03-20T15:01:34.559Z,99575.97
2023-03-20T15:03:40.779Z,99573.25
2023-03-20T15:05:44.077Z,99591.16
2023-03-20T15:07:46.628Z,99582.22
2023-03-20T15:09:52.301Z,99577.06
2023-03-20T15:12:04.225Z,99572.19
2023-03-20T15:14:09.622Z,99573.78
2023-03-20T15:16:14.814Z,99569.19
2023-03-20T15:18:17.363Z,99585.47
2023-03-20T15:20:24.108Z,99576.50
2023-03-20T15:22:26.569Z,99580.84
2023-03-20T15:24:30.257Z,99575.97
2023-03-20T15:26:35.388Z,99576.50
2023-03-20T15:28:39.053Z,99571.09
2023-03-20T15:30:42.290Z,99568.91
2023-03-20T15:32:46.303Z,99565.66
2023-03-20T15:34:51.164Z,99565.09
2023-03-20T15:36:57.866Z,99562.66
2023-03-20T15:39:19.196Z,99558.56
2023-03-20T15:41:28.878Z,99561.28
2023-03-20T15:43:33.159Z,99561.81
2023-03-20T15:45:38.584Z,99561.81
2023-03-20T15:47:43.416Z,99560.44
2023-03-20T15:49:53.261Z,99558.25
2023-03-20T15:52:00.543Z,99562.31
2023-03-20T15:54:08.023Z,99556.94
2023-03-20T15:56:19.050Z,99560.16
2023-03-20T15:58:22.560Z,99556.09
2023-03-20T16:00:35.403Z,99560.97
2023-03-20T16:02:38.456Z,99560.44
2023-03-20T16:04:51.466Z,99557.75
2023-03-20T16:07:00.570Z,99555.28
2023-03-20T16:09:08.020Z,99551.19
2023-03-20T16:11:16.826Z,99560.13
2023-03-20T16:13:19.606Z,99556.06
2023-03-20T16:15:27.774Z,99553.84
2023-03-20T16:17:32.641Z,99547.88
2023-03-20T16:19:35.410Z,99548.72
2023-03-20T16:21:41.292Z,99548.47
2023-03-20T16:23:50.073Z,99549.84
2023-03-20T16:25:58.363Z,99551.69
2023-03-20T16:28:01.268Z,99548.97
2023-03-20T16:30:21.467Z,99549.78
2023-03-20T16:32:47.382Z,99548.19
2023-03-20T16:34:52.102Z,99548.72
2023-03-20T16:37:00.917Z,99541.16
2023-03-20T16:39:03.446Z,99543.06
2023-03-20T16:41:34.604Z,99539.50
2023-03-20T16:43:39.061Z,99539.75
2023-03-20T16:45:49.170Z,99541.63
2023-03-20T16:47:51.870Z,99538.66
2023-03-20T16:50:06.677Z,99540.81
2023-03-20T16:52:14.292Z,99537.56
2023-03-20T16:54:23.788Z,99542.19
2023-03-20T16:56:36.899Z,99539.16
2023-03-20T16:58:41.405Z,99535.38
2023-03-20T17:00:57.723Z,99536.44
2023-03-20T17:03:22.827Z,99533.97
2023-03-20T17:05:42.007Z,99541.28
2023-03-20T17:07:44.540Z,99539.94
2023-03-20T17:10:15.903Z,99540.25
2023-03-20T17:12:18.708Z,99518.56
2023-03-20T17:14:21.260Z,99536.97
2023-03-20T17:16:25.649Z,99534.03
2023-03-20T17:18:29.314Z,99531.00
2023-03-20T17:20:32.178Z,99528.31
2023-03-20T17:22:35.237Z,99529.09
2023-03-20T17:24:38.407Z,99535.59
2023-03-20T17:26:42.916Z,99538.03
2023-03-20T17:28:46.876Z,99532.09
2023-03-20T17:30:51.700Z,99530.75
2023-03-20T17:32:54.931Z,99532.59
2023-03-20T17:34:57.693Z,99523.09
2023-03-20T17:37:03.230Z,99521.50
2023-03-20T17:39:06.212Z,99526.38
2023-03-20T17:41:16.849Z,99519.34
2023-03-20T17:43:20.421Z,99511.22
2023-03-20T17:45:24.168Z,99516.88
2023-03-20T17:47:28.152Z,99514.16
2023-03-20T17:49:30.691Z,99516.06
2023-03-20T17:51:34.848Z,99512.25
2023-03-20T17:53:37.337Z,99503.59
2023-03-20T17:55:39.875Z,99507.94
2023-03-20T17:57:43.494Z,99508.19
2023-03-20T17:59:46.656Z,99513.34
2023-03-20T18:01:49.510Z,99507.66
2023-03-20T18:03:52.288Z,99506.28
2023-03-20T18:05:55.109Z,99500.06
2023-03-20T18:07:57.730Z,99510.06
2023-03-20T18:10:00.426Z,99506.50
2023-03-20T18:12:03.163Z,99496.75
2023-03-20T18:14:06.860Z,99494.88
2023-03-20T18:16:34.748Z,99494.06
2023-03-20T18:18:37.337Z,99495.44
2023-03-20T18:20:41.304Z,99489.75
2023-03-20T18:22:43.772Z,99499.25
2023-03-20T18:24:46.856Z,99488.91
2023-03-20T18:26:51.350Z,99487.06
2023-03-20T18:28:55.372Z,99488.94
2023-03-20T18:30:58.641Z,99484.06
2023-03-20T18:33:01.892Z,99481.34
2023-03-20T18:35:05.129Z,99476.47
2023-03-20T18:37:14.070Z,99479.72
2023-03-20T18:39:22.741Z,99467.25
2023-03-20T18:41:26.048Z,99478.63
2023-03-20T18:43:28.561Z,99478.63
2023-03-20T18:45:31.961Z,99481.06
2023-03-20T18:47:34.514Z,99479.72
2023-03-20T18:49:38.855Z,99478.59
2023-03-20T18:51:41.354Z,99476.44
2023-03-20T18:53:44.366Z,99477.47
2023-03-20T18:55:46.962Z,99474.22
2023-03-20T18:57:50.596Z,99471.25
2023-03-20T18:59:53.109Z,99465.03
2023-03-20T19:01:55.751Z,99461.47
2023-03-20T19:03:58.354Z,99462.84
2023-03-20T19:06:01.071Z,99468.00
2023-03-20T19:08:04.061Z,99472.63
2023-03-20T19:10:07.223Z,99479.09
2023-03-20T19:12:09.815Z,99472.03
2023-03-20T19:14:13.469Z,99459.56
2023-03-20T19:16:20.410Z,99465.28
2023-03-20T19:18:26.254Z,99455.81
2023-03-20T19:20:39.151Z,99457.41
2023-03-20T19:22:41.803Z,99454.16
2023-03-20T19:24:44.343Z,99457.94
2023-03-20T19:26:46.938Z,99453.88
2023-03-20T19:28:49.397Z,99450.88
2023-03-20T19:30:52.952Z,99450.91
2023-03-20T19:32:56.090Z,99447.94
2023-03-20T19:35:43.644Z,99441.41
2023-03-20T19:37:21.606Z,99436.28
2023-03-20T19:39:24.080Z,99432.47
2023-03-20T19:41:28.876Z,99438.97
2023-03-20T19:43:32.401Z,99441.97
2023-03-20T19:45:37.141Z,99445.50
2023-03-20T19:47:39.820Z,99440.63
2023-03-20T19:49:42.351Z,99450.66
2023-03-20T19:51:45.261Z,99440.59
2023-03-20T19:53:49.043Z,99446.56
2023-03-20T19:55:51.871Z,99446.25
2023-03-20T19:57:56.611Z,99450.03
2023-03-20T20:00:43.853Z,99442.72
2023-03-20T20:02:22.779Z,99442.16
2023-03-20T20:04:25.910Z,99449.78
2023-03-20T20:06:43.152Z,99449.22
2023-03-20T20:08:53.770Z,99444.09
2023-03-20T20:10:56.578Z,99443.00
2023-03-20T20:12:59.145Z,99445.16
2023-03-20T20:15:01.632Z,99437.03
2023-03-20T20:17:06.077Z,99426.47
2023-03-20T20:19:08.633Z,99428.06
2023-03-20T20:22:06.281Z,99423.19
2023-03-20T20:23:33.732Z,99423.47
2023-03-20T20:25:36.713Z,99422.94
2023-03-20T20:27:39.797Z,99414.03
2023-03-20T20:29:42.664Z,99427.25
2023-03-20T20:31:45.199Z,99419.44
2023-03-20T20:34:02.050Z,99432.97
2023-03-20T20:37:20.347Z,99432.41
2023-03-20T20:38:50.027Z,99425.88
2023-03-20T20:40:53.800Z,99429.63
2023-03-20T20:43:01.465Z,99429.13
2023-03-20T20:45:09.983Z,99433.44
2023-03-20T20:47:13.505Z,99426.41
2023-03-20T20:49:19.850Z,99429.13
2023-03-20T20:51:22.763Z,99426.66
2023-03-20T20:53:25.414Z,99416.63
2023-03-20T20:55:27.896Z,99420.69
2023-03-20T20:57:30.996Z,99416.38
2023-03-20T20:59:37.619Z,99406.63
2023-03-20T21:01:40.146Z,99404.19
2023-03-20T21:03:42.655Z,99418.25
2023-03-20T21:05:45.731Z,99412.84
2023-03-20T21:07:51.572Z,99413.94
2023-03-20T21:09:54.052Z,99412.31
2023-03-20T21:11:56.525Z,99407.72
2023-03-20T21:13:59.280Z,99400.94
2023-03-20T21:16:01.889Z,99397.44
2023-03-20T21:18:04.518Z,99410.97
2023-03-20T21:20:07.822Z,99407.72
2023-03-20T21:22:13.443Z,99400.94
2023-03-20T21:24:33.560Z,99397.94
2023-03-20T21:26:39.550Z,99398.19
2023-03-20T21:28:42.151Z,99400.63
2023-03-20T21:31:09.091Z,99395.19
2023-03-20T21:33:07.377Z,99404.41
2023-03-20T21:35:11.176Z,99389.53
2023-03-20T21:39:41.747Z,99387.91
2023-03-20T21:41:45.412Z,99387.63
2023-03-20T21:43:48.249Z,99384.38
2023-03-20T21:46:27.742Z,99383.56
2023-03-20T21:48:45.874Z,99379.50
2023-03-20T21:50:59.232Z,99384.13
2023-03-20T21:56:16.988Z,99380.84
2023-03-20T22:02:33.116Z,99382.44
2023-03-20T22:05:34.589Z,99381.38
2023-03-20T22:07:44.995Z,99373.84
2023-03-20T22:12:30.384Z,99374.91
2023-03-20T22:14:56.872Z,99371.16
2023-03-20T22:17:40.754Z,99370.59
2023-03-20T22:24:21.921Z,99361.97
2023-03-20T22:31:33.679Z,99347.38
2023-03-20T22:36:24.485Z,99344.91
2023-03-20T22:41:32.173Z,99345.44
2023-03-20T22:42:56.269Z,99343.53
2023-03-20T22:45:05.142Z,99339.47
2023-03-20T22:47:08.218Z,99332.72
2023-03-20T22:49:11.325Z,99333.53
2023-03-20T22:51:13.903Z,99327.31
2023-03-20T22:53:17.867Z,99330.84
2023-03-20T22:55:20.601Z,99327.34
2023-03-20T22:57:26.598Z,99325.16
2023-03-20T22:59:37.281Z,99323.53
2023-03-20T23:01:40.367Z,99320.81
2023-03-20T23:03:42.996Z,99324.63
2023-03-20T23:05:45.869Z,99314.34
2023-03-20T23:07:48.453Z,99318.66
2023-03-20T23:09:51.198Z,99321.91
2023-03-20T23:11:53.882Z,99318.41
2023-03-20T23:13:57.106Z,99309.75
2023-03-20T23:15:59.716Z,99313.25
2023-03-20T23:18:02.240Z,99307.03
2023-03-20T23:20:14.946Z,99309.72
2023-03-20T23:22:19.448Z,99308.13
2023-03-20T23:24:22.227Z,99310.53
2023-03-20T23:26:24.761Z,99301.63
2023-03-20T23:28:27.229Z,99306.22
2023-03-20T23:30:37.865Z,99303.50
2023-03-20T23:32:46.474Z,99296.75
2023-03-20T23:34:48.936Z,99295.66
2023-03-20T23:36:51.665Z,99303.78
2023-03-20T23:38:56.874Z,99297.56
2023-03-20T23:40:59.393Z,99303.50
2023-03-20T23:43:01.985Z,99293.25
2023-03-20T23:47:29.993Z,99290.25
2023-03-20T23:49:37.844Z,99294.31
2023-03-20T23:51:40.434Z,99293.25
2023-03-20T23:53:42.966Z,99296.47
2023-03-20T23:55:46.185Z,99290.81
2023-03-20T23:57:49.515Z,99298.94
2023-03-20T23:59:52.520Z,99294.06
